Time;durP1;ratioP1;P1;durP2;ratioP2;P2;SDS_P1;SDS_P2;PMS_P1;PMS_P2;Temp;Humidity;BMP_temperature;BMP_pressure;BME280_temperature;BME280_humidity;BME280_pressure;Samples;Min_cycle;Max_cycle;Signal;HPM_P1;HPM_P2
2022/06/26 00:00:04;;;;;;;;;3.33;3.00;;;;;23.93;49.21;98255.28;4932953;28;102602;-57
2022/06/26 00:02:31;;;;;;;;;2.33;2.33;;;;;23.93;49.13;98257.22;4858820;28;102586;-57
2022/06/26 00:04:59;;;;;;;;;3.00;3.00;;;;;23.94;48.95;98262.47;4918978;28;104402;-57
2022/06/26 00:07:26;;;;;;;;;2.00;2.00;;;;;23.93;49.00;98260.81;4898106;28;102155;-57
2022/06/26 00:09:53;;;;;;;;;3.67;3.00;;;;;23.93;48.93;98260.81;4919471;28;102486;-57
2022/06/26 00:12:20;;;;;;;;;2.67;2.67;;;;;23.94;49.05;98258.88;4865857;28;104174;-57
2022/06/26 00:14:47;;;;;;;;;2.50;2.50;;;;;23.89;48.89;98259.78;4926955;28;104110;-57
2022/06/26 00:17:15;;;;;;;;;2.33;2.00;;;;;23.93;48.96;98274.63;4978764;28;102140;-57
2022/06/26 00:19:42;;;;;;;;;3.00;3.00;;;;;23.93;49.11;98276.56;4932844;28;102073;-57
2022/06/26 00:22:09;;;;;;;;;2.33;2.00;;;;;23.93;48.81;98284.84;4942187;28;102279;-57
2022/06/26 00:24:37;;;;;;;;;2.00;2.00;;;;;23.93;49.06;98282.09;4942846;28;104123;-58
2022/06/26 00:27:06;;;;;;;;;2.00;2.00;;;;;23.92;49.18;98286.78;4940518;28;102220;-57
2022/06/26 00:29:33;;;;;;;;;2.00;2.00;;;;;23.90;49.14;98278.00;4946177;28;102163;-57
2022/06/26 00:32:05;;;;;;;;;2.00;2.00;;;;;23.90;49.08;98283.50;4893026;28;102188;-57
2022/06/26 00:34:32;;;;;;;;;3.67;3.67;;;;;23.91;48.97;98285.13;4923363;28;103074;-57
2022/06/26 00:36:59;;;;;;;;;3.67;3.00;;;;;23.89;48.92;98290.16;4937018;28;103988;-60
2022/06/26 00:39:26;;;;;;;;;2.67;2.67;;;;;23.90;48.91;98279.94;4947046;28;102212;-57
2022/06/26 00:41:54;;;;;;;;;2.33;2.33;;;;;23.89;49.04;98279.09;4935769;28;102237;-57
2022/06/26 00:44:22;;;;;;;;;4.00;4.00;;;;;23.90;48.99;98282.69;4935799;28;104017;-57
2022/06/26 00:46:50;;;;;;;;;3.00;3.00;;;;;23.89;48.80;98298.44;4929435;28;102616;-57
2022/06/26 00:49:17;;;;;;;;;3.00;3.00;;;;;23.89;48.83;98297.59;4935300;28;102176;-57
2022/06/26 00:51:46;;;;;;;;;3.00;3.00;;;;;23.89;49.00;98289.31;4924579;28;102427;-57
2022/06/26 00:54:14;;;;;;;;;3.00;3.00;;;;;23.88;49.09;98293.19;4931254;28;104133;-57
2022/06/26 00:56:41;;;;;;;;;3.67;3.00;;;;;23.88;49.04;98291.25;4935521;28;102325;-57
2022/06/26 00:59:08;;;;;;;;;1.00;1.00;;;;;23.88;49.11;98290.44;4932499;28;102555;-57
2022/06/26 01:01:35;;;;;;;;;4.00;4.00;;;;;23.87;48.94;98291.53;4917771;28;102146;-57
2022/06/26 01:04:03;;;;;;;;;2.00;1.67;;;;;23.86;49.22;98288.00;4893150;28;104205;-59
2022/06/26 01:06:31;;;;;;;;;2.67;2.67;;;;;23.86;49.16;98287.16;4920840;28;102123;-57
2022/06/26 01:08:58;;;;;;;;;3.00;3.00;;;;;23.86;49.23;98292.69;4918183;28;102652;-57
2022/06/26 01:11:26;;;;;;;;;2.00;2.00;;;;;23.86;49.20;98292.69;4898245;28;103876;-57
2022/06/26 01:13:54;;;;;;;;;4.00;3.00;;;;;23.85;49.18;98293.78;4922313;28;104009;-57
2022/06/26 01:16:22;;;;;;;;;3.33;3.33;;;;;23.84;49.19;98292.97;4920903;28;102879;-57
2022/06/26 01:18:53;;;;;;;;;3.00;3.00;;;;;23.84;49.18;98281.91;4930204;28;102209;-57
2022/06/26 01:21:19;;;;;;;;;3.00;2.33;;;;;23.85;49.25;98294.63;4926696;28;107665;-57
2022/06/26 01:23:47;;;;;;;;;2.67;2.67;;;;;23.85;49.04;98291.03;4930588;28;104246;-57
2022/06/26 01:26:15;;;;;;;;;2.00;2.00;;;;;23.85;49.16;98296.56;4927719;28;102430;-57
2022/06/26 01:28:43;;;;;;;;;3.33;3.33;;;;;23.85;49.20;98297.38;4923485;28;102230;-57
2022/06/26 01:31:13;;;;;;;;;2.67;2.67;;;;;23.84;49.13;98284.69;4925617;28;104004;-58
2022/06/26 01:33:41;;;;;;;;;2.00;2.00;;;;;23.84;49.13;98292.97;4933411;28;108944;-57
2022/06/26 01:36:08;;;;;;;;;3.00;2.00;;;;;23.84;49.17;98292.13;4938976;28;102307;-57
2022/06/26 01:38:35;;;;;;;;;2.00;2.00;;;;;23.83;49.17;98288.56;4934261;28;104412;-57
2022/06/26 01:41:02;;;;;;;;;3.00;3.00;;;;;23.82;49.25;98295.19;4917881;28;102342;-57
2022/06/26 01:43:31;;;;;;;;;4.67;3.67;;;;;23.82;49.14;98300.72;4928471;28;104254;-57
2022/06/26 01:45:58;;;;;;;;;4.00;3.00;;;;;23.81;49.27;98301.84;4926207;28;102062;-57
2022/06/26 01:48:27;;;;;;;;;2.00;2.00;;;;;23.81;49.06;98296.31;4909853;28;102158;-57
2022/06/26 01:50:55;;;;;;;;;3.00;3.00;;;;;23.81;49.28;98301.84;4926379;28;102299;-57
2022/06/26 01:53:22;;;;;;;;;4.00;3.00;;;;;23.82;49.05;98303.47;4910638;28;104064;-57
2022/06/26 01:55:49;;;;;;;;;3.00;3.00;;;;;23.81;49.16;98307.38;4918131;28;102296;-58
2022/06/26 01:58:17;;;;;;;;;2.67;2.67;;;;;23.81;49.31;98310.13;4934578;28;104224;-57
2022/06/26 02:00:45;;;;;;;;;2.67;2.67;;;;;23.81;49.12;98304.59;4939644;28;102554;-57
2022/06/26 02:03:12;;;;;;;;;4.00;4.00;;;;;23.80;49.13;98307.66;4943040;28;104061;-60
2022/06/26 02:05:39;;;;;;;;;3.00;3.00;;;;;23.80;49.29;98316.75;4932630;28;102357;-57
2022/06/26 02:08:07;;;;;;;;;3.00;3.00;;;;;23.79;49.19;98315.13;4943984;28;104528;-57
2022/06/26 02:13:39;;;;;;;;;3.00;3.00;;;;;23.78;49.12;98304.34;4923825;28;108653;-57
2022/06/26 02:16:13;;;;;;;;;4.00;3.67;;;;;23.78;49.33;98305.19;4936195;28;102268;-57
2022/06/26 02:18:41;;;;;;;;;3.33;3.33;;;;;23.77;49.18;98314.59;4937078;28;102175;-57
2022/06/26 02:21:09;;;;;;;;;3.00;3.00;;;;;23.77;49.33;98311.00;4935997;28;103645;-57
2022/06/26 02:23:37;;;;;;;;;3.67;2.67;;;;;23.77;49.25;98317.38;4936299;28;108894;-57
2022/06/26 02:26:05;;;;;;;;;3.00;2.67;;;;;23.79;49.33;98314.28;4939923;28;102300;-57
2022/06/26 02:28:32;;;;;;;;;4.00;4.00;;;;;23.78;49.26;98312.63;4936736;28;102467;-57
2022/06/26 02:30:59;;;;;;;;;2.67;2.67;;;;;23.77;49.42;98311.84;4944305;28;102341;-57
2022/06/26 02:33:28;;;;;;;;;4.00;3.33;;;;;23.77;49.34;98311.84;4929210;28;108266;-57
2022/06/26 02:35:55;;;;;;;;;3.00;3.00;;;;;23.77;49.39;98317.38;4942470;28;102183;-57
2022/06/26 02:38:23;;;;;;;;;2.67;2.67;;;;;23.77;49.32;98313.78;4936298;28;102519;-57
2022/06/26 02:40:50;;;;;;;;;3.00;3.00;;;;;23.76;49.18;98315.72;4970852;28;102387;-57
2022/06/26 02:43:23;;;;;;;;;3.00;2.67;;;;;23.75;49.24;98305.78;4940977;28;104091;-57
2022/06/26 02:45:53;;;;;;;;;5.00;4.00;;;;;23.75;49.26;98319.59;4922618;28;102095;-57
2022/06/26 02:48:20;;;;;;;;;2.67;2.33;;;;;23.74;49.40;98323.44;4934259;28;102189;-57
2022/06/26 02:50:48;;;;;;;;;3.33;3.33;;;;;23.74;49.43;98317.94;4932068;28;102988;-57
2022/06/26 02:53:15;;;;;;;;;2.00;2.00;;;;;23.74;49.50;98323.44;4930635;28;104060;-57
2022/06/26 02:55:42;;;;;;;;;4.67;4.00;;;;;23.72;49.39;98322.94;4939273;28;104411;-59
2022/06/26 02:58:09;;;;;;;;;5.00;4.00;;;;;23.75;49.25;98335.31;4943017;28;102578;-57
2022/06/26 03:00:37;;;;;;;;;3.67;3.00;;;;;23.74;49.42;98330.91;4935842;28;102278;-57
2022/06/26 03:03:04;;;;;;;;;2.00;2.00;;;;;23.73;49.40;98338.38;4938524;28;104110;-57
2022/06/26 03:05:31;;;;;;;;;3.00;3.00;;;;;23.74;49.50;98345.53;4940016;28;102114;-57
2022/06/26 03:07:59;;;;;;;;;4.33;4.00;;;;;23.73;49.36;98343.88;4925622;28;104390;-57
2022/06/26 03:10:26;;;;;;;;;3.33;3.00;;;;;23.73;49.44;98337.56;4930752;28;102609;-57
2022/06/26 03:12:53;;;;;;;;;4.33;3.33;;;;;23.73;49.27;98341.13;4925194;28;104216;-57
2022/06/26 03:15:20;;;;;;;;;3.00;3.00;;;;;23.73;49.51;98354.94;4930191;28;102089;-57
2022/06/26 03:17:47;;;;;;;;;3.00;3.00;;;;;23.73;49.29;98351.38;4935305;28;102169;-57
2022/06/26 03:20:18;;;;;;;;;4.00;3.00;;;;;23.71;49.31;98351.66;4937609;28;104287;-59
2022/06/26 03:22:46;;;;;;;;;4.00;4.00;;;;;23.72;49.36;98352.47;4924567;28;104039;-57
2022/06/26 03:25:13;;;;;;;;;3.00;2.67;;;;;23.72;49.34;98356.06;4928349;28;102079;-57
2022/06/26 03:27:40;;;;;;;;;3.00;3.00;;;;;23.71;49.46;98350.81;4928637;28;102216;-57
2022/06/26 03:30:08;;;;;;;;;4.00;4.00;;;;;23.71;49.34;98350.81;4939995;28;102452;-57
2022/06/26 03:32:36;;;;;;;;;4.00;3.00;;;;;23.72;49.35;98353.31;4923740;28;104250;-58
2022/06/26 03:35:03;;;;;;;;;2.67;2.67;;;;;23.71;49.43;98359.94;4924667;28;102427;-57
2022/06/26 03:37:30;;;;;;;;;3.00;3.00;;;;;23.73;49.37;98365.19;4927417;28;104801;-57
2022/06/26 03:39:58;;;;;;;;;5.00;4.00;;;;;23.72;49.44;98364.34;4935413;28;103526;-57
2022/06/26 03:42:25;;;;;;;;;4.00;4.00;;;;;23.72;49.46;98356.06;4936333;28;104285;-57
2022/06/26 03:44:52;;;;;;;;;2.67;2.67;;;;;23.72;49.43;98352.47;4937842;28;102303;-57
2022/06/26 03:47:19;;;;;;;;;3.00;3.00;;;;;23.71;49.35;98359.13;4929636;28;102139;-57
2022/06/26 03:49:46;;;;;;;;;4.00;4.00;;;;;23.72;49.50;98364.34;4937361;28;102510;-58
2022/06/26 03:52:14;;;;;;;;;3.00;3.00;;;;;23.72;49.29;98363.53;4937533;28;104050;-57
2022/06/26 03:54:41;;;;;;;;;5.00;4.00;;;;;23.71;49.29;98364.63;4932949;28;102366;-57
2022/06/26 03:57:08;;;;;;;;;3.33;3.33;;;;;23.70;49.51;98361.03;4938191;28;102548;-57
2022/06/26 03:59:36;;;;;;;;;5.00;4.33;;;;;23.71;49.31;98361.88;4934302;28;106953;-57
2022/06/26 04:02:04;;;;;;;;;4.00;4.00;;;;;23.71;49.31;98361.88;4963769;28;104250;-57
2022/06/26 04:04:31;;;;;;;;;3.67;3.00;;;;;23.71;49.27;98368.22;4939806;28;103043;-57
2022/06/26 04:06:58;;;;;;;;;3.33;3.33;;;;;23.71;49.31;98370.97;4934248;28;102397;-57
2022/06/26 04:09:25;;;;;;;;;3.67;3.67;;;;;23.72;49.25;98369.88;4941061;28;103916;-57
2022/06/26 04:11:52;;;;;;;;;3.00;3.00;;;;;23.71;49.24;98368.22;4939647;28;104076;-57
2022/06/26 04:14:19;;;;;;;;;5.00;5.00;;;;;23.72;49.31;98363.53;4940421;28;102199;-57
2022/06/26 04:16:46;;;;;;;;;5.00;5.00;;;;;23.71;49.45;98368.22;4935921;28;102100;-57
2022/06/26 04:19:14;;;;;;;;;3.67;3.67;;;;;23.71;49.48;98373.75;4945556;28;102424;-57
2022/06/26 04:21:41;;;;;;;;;3.00;3.00;;;;;23.70;49.38;98372.09;4943435;28;109091;-57
2022/06/26 04:24:08;;;;;;;;;4.00;4.00;;;;;23.71;49.37;98375.69;4935414;28;102284;-57
2022/06/26 04:26:35;;;;;;;;;2.67;2.67;;;;;23.70;49.31;98369.34;4932228;28;102900;-57
2022/06/26 04:29:02;;;;;;;;;3.33;3.33;;;;;23.71;49.51;98383.97;4923566;28;102471;-57
2022/06/26 04:31:29;;;;;;;;;3.33;3.00;;;;;23.71;49.46;98372.91;4932643;28;104077;-57
2022/06/26 04:33:56;;;;;;;;;4.00;4.00;;;;;23.72;49.00;98382.84;4928749;28;102479;-57
2022/06/26 04:36:23;;;;;;;;;4.00;3.33;;;;;23.71;49.55;98379.25;4929751;28;102643;-57
2022/06/26 04:38:51;;;;;;;;;3.33;3.00;;;;;23.70;49.48;98374.84;4945860;28;102483;-57
2022/06/26 04:41:36;;;;;;;;;3.00;3.00;;;;;23.72;49.18;98386.44;4936524;28;104123;-59
2022/06/26 04:44:10;;;;;;;;;4.00;4.00;;;;;23.71;49.24;98382.03;4944177;28;102031;-57
2022/06/26 04:46:41;;;;;;;;;3.67;3.67;;;;;23.72;49.35;98385.63;4935724;28;102978;-57
2022/06/26 04:49:08;;;;;;;;;4.00;4.00;;;;;23.72;49.24;98383.69;4932137;28;103932;-57
2022/06/26 04:51:35;;;;;;;;;4.67;3.67;;;;;23.72;49.44;98380.91;4943575;28;104068;-57
2022/06/26 04:54:04;;;;;;;;;6.00;4.00;;;;;23.71;49.30;98384.78;4943694;28;102025;-57
2022/06/26 04:56:31;;;;;;;;;4.00;4.00;;;;;23.71;49.43;98390.31;4942499;28;102140;-57
2022/06/26 04:58:58;;;;;;;;;3.33;3.33;;;;;23.71;49.43;98395.84;4945583;28;102335;-57
2022/06/26 05:01:25;;;;;;;;;2.00;2.00;;;;;23.71;49.34;98390.31;4939055;28;104101;-57
2022/06/26 05:03:53;;;;;;;;;5.00;3.00;;;;;23.72;49.17;98391.97;4951285;28;102533;-57
2022/06/26 05:06:20;;;;;;;;;2.00;2.00;;;;;23.71;49.44;98390.31;4945224;28;103029;-57
2022/06/26 05:08:47;;;;;;;;;3.00;3.00;;;;;23.73;49.37;98392.78;4945299;28;102152;-57
2022/06/26 05:11:14;;;;;;;;;4.00;3.00;;;;;23.73;49.36;98399.09;4940087;28;108920;-57
2022/06/26 05:13:41;;;;;;;;;3.00;3.00;;;;;23.73;49.10;98393.59;4936913;28;102465;-58
2022/06/26 05:16:08;;;;;;;;;2.33;2.33;;;;;23.72;49.28;98389.19;4938241;28;102063;-57
2022/06/26 05:18:36;;;;;;;;;3.00;3.00;;;;;23.74;49.17;98395.25;4935888;28;102404;-57
2022/06/26 05:21:03;;;;;;;;;4.00;4.00;;;;;23.74;49.28;98398.00;4934484;28;104197;-57
2022/06/26 05:23:30;;;;;;;;;3.33;3.33;;;;;23.75;49.33;98401.59;4941713;28;102133;-57
2022/06/26 05:25:57;;;;;;;;;4.00;4.00;;;;;23.75;49.32;98396.06;4935451;28;102211;-57
2022/06/26 05:28:24;;;;;;;;;2.33;2.00;;;;;23.75;49.19;98398.81;4938021;28;102519;-57
2022/06/26 05:30:51;;;;;;;;;2.67;2.67;;;;;23.74;49.36;98405.47;4945444;28;103788;-57
2022/06/26 05:33:18;;;;;;;;;4.00;3.00;;;;;23.75;49.23;98398.81;4937800;28;102060;-57
2022/06/26 05:35:45;;;;;;;;;3.00;2.67;;;;;23.75;49.45;98409.88;4941807;28;102112;-57
2022/06/26 05:38:12;;;;;;;;;3.00;3.00;;;;;23.75;49.25;98410.69;4942544;28;102389;-57
2022/06/26 05:40:40;;;;;;;;;2.67;2.67;;;;;23.76;49.17;98414.28;4934170;28;104142;-57
2022/06/26 05:43:07;;;;;;;;;4.00;4.00;;;;;23.77;49.07;98415.94;4937342;28;102267;-57
2022/06/26 05:45:34;;;;;;;;;2.33;2.33;;;;;23.78;49.31;98417.56;4923696;28;102369;-58
2022/06/26 05:48:01;;;;;;;;;3.67;3.67;;;;;23.77;49.19;98416.75;4929095;28;102446;-57
2022/06/26 05:50:28;;;;;;;;;3.00;3.00;;;;;23.79;49.30;98414.53;4943178;28;104163;-57
2022/06/26 05:52:55;;;;;;;;;3.33;3.33;;;;;23.79;49.36;98413.69;4937518;28;102166;-57
2022/06/26 05:55:22;;;;;;;;;4.00;4.00;;;;;23.79;49.32;98420.03;4923380;28;102500;-57
2022/06/26 05:57:50;;;;;;;;;3.67;3.00;;;;;23.79;49.16;98414.53;4938040;28;110481;-59
2022/06/26 06:00:17;;;;;;;;;3.00;3.00;;;;;23.79;49.40;98420.03;4945541;28;109864;-57
2022/06/26 06:02:45;;;;;;;;;3.67;3.67;;;;;23.80;49.09;98427.22;4932371;28;102204;-57
2022/06/26 06:05:12;;;;;;;;;4.67;4.00;;;;;23.78;49.08;98426.66;4928588;28;102465;-57
2022/06/26 06:07:39;;;;;;;;;2.00;2.00;;;;;23.78;49.13;98429.44;4933551;28;102137;-57
2022/06/26 06:10:07;;;;;;;;;3.00;3.00;;;;;23.78;49.16;98423.91;4942442;28;104008;-57
2022/06/26 06:12:34;;;;;;;;;2.67;1.67;;;;;23.79;49.15;98431.09;4937655;28;102442;-57
2022/06/26 06:15:01;;;;;;;;;3.67;3.67;;;;;23.80;48.97;98429.97;4942559;28;102290;-57
2022/06/26 06:17:38;;;;;;;;;3.00;3.00;;;;;23.80;49.30;98429.16;4967907;28;102360;-58
2022/06/26 06:20:12;;;;;;;;;4.67;4.00;;;;;23.80;49.20;98434.69;4931917;28;104172;-57
2022/06/26 06:22:40;;;;;;;;;3.00;3.00;;;;;23.81;49.13;98442.69;4924230;28;102261;-57
2022/06/26 06:25:08;;;;;;;;;4.00;4.00;;;;;23.80;49.31;98438.25;4938550;28;102140;-57
2022/06/26 06:27:42;;;;;;;;;4.00;4.00;;;;;23.81;49.07;98430.81;4929188;28;102134;-57
2022/06/26 06:30:09;;;;;;;;;4.00;3.00;;;;;23.79;49.26;98436.59;4940103;28;104506;-57
2022/06/26 06:32:36;;;;;;;;;2.67;2.67;;;;;23.80;49.21;98432.75;4930561;28;103346;-57
2022/06/26 06:35:04;;;;;;;;;2.00;2.00;;;;;23.80;49.29;98438.25;4971771;28;102076;-58
2022/06/26 06:37:32;;;;;;;;;3.00;3.00;;;;;23.80;49.45;98443.78;4939626;28;102497;-57
2022/06/26 06:40:00;;;;;;;;;3.00;3.00;;;;;23.81;49.10;98439.09;4938808;28;104196;-57
2022/06/26 06:42:27;;;;;;;;;3.00;3.00;;;;;23.81;49.15;98442.69;4920996;28;102375;-57
2022/06/26 06:44:55;;;;;;;;;4.00;4.00;;;;;23.81;49.22;98445.44;4939910;28;102397;-57
2022/06/26 06:47:22;;;;;;;;;4.00;4.00;;;;;23.80;49.20;98446.56;4940110;28;102810;-57
2022/06/26 06:49:49;;;;;;;;;2.67;2.67;;;;;23.81;49.14;98439.91;4945920;28;104171;-57
2022/06/26 06:52:16;;;;;;;;;3.00;3.00;;;;;23.82;49.33;98440.75;4934761;28;102259;-58
2022/06/26 06:54:43;;;;;;;;;3.00;3.00;;;;;23.83;49.06;98451.47;4932271;28;103319;-57
2022/06/26 06:57:10;;;;;;;;;4.00;3.33;;;;;23.83;49.22;98445.97;4936428;28;102916;-57
2022/06/26 06:59:37;;;;;;;;;2.67;2.67;;;;;23.83;49.27;98447.91;4941714;28;104045;-57
2022/06/26 07:02:04;;;;;;;;;3.00;3.00;;;;;23.84;49.25;98446.78;4935627;28;105095;-57
2022/06/26 07:04:31;;;;;;;;;2.00;2.00;;;;;23.84;49.20;98444.03;4940170;28;103265;-57
2022/06/26 07:06:59;;;;;;;;;3.00;2.67;;;;;23.84;49.12;98450.38;4944138;28;103086;-57
2022/06/26 07:09:26;;;;;;;;;3.00;3.00;;;;;23.83;49.10;98445.97;4940623;28;104261;-57
2022/06/26 07:11:53;;;;;;;;;2.00;2.00;;;;;23.84;49.34;98450.38;4933117;28;102272;-57
2022/06/26 07:14:23;;;;;;;;;3.00;3.00;;;;;23.83;49.21;98448.72;4937453;28;102495;-57
2022/06/26 07:16:50;;;;;;;;;3.67;3.67;;;;;23.84;49.21;98449.53;4940429;28;102839;-57
2022/06/26 07:19:17;;;;;;;;;3.00;2.33;;;;;23.85;49.31;98456.72;4965268;28;104010;-57
2022/06/26 07:21:44;;;;;;;;;2.00;2.00;;;;;23.86;49.14;98458.38;4936808;28;102387;-57
2022/06/26 07:24:15;;;;;;;;;2.00;2.00;;;;;23.86;49.24;98453.69;4940278;28;103248;-57
2022/06/26 07:26:42;;;;;;;;;3.00;3.00;;;;;23.86;49.09;98448.16;4929768;28;102719;-57
2022/06/26 07:29:09;;;;;;;;;2.67;2.67;;;;;23.87;49.17;98447.03;4941900;28;104092;-57
2022/06/26 07:31:36;;;;;;;;;3.00;3.00;;;;;23.89;49.16;98446.75;4931006;28;102197;-57
2022/06/26 07:34:12;;;;;;;;;3.00;3.00;;;;;23.88;49.15;98447.84;4937447;28;102801;-57
2022/06/26 07:36:40;;;;;;;;;3.00;3.00;;;;;23.88;49.02;98448.69;4941005;28;102197;-57
2022/06/26 07:39:07;;;;;;;;;3.00;3.00;;;;;23.88;49.15;98445.91;4930287;28;104152;-57
2022/06/26 07:41:34;;;;;;;;;3.67;3.00;;;;;23.88;49.06;98450.59;4928204;28;102681;-57
2022/06/26 07:44:02;;;;;;;;;2.00;2.00;;;;;23.88;49.00;98451.44;4930156;28;102544;-57
2022/06/26 07:46:29;;;;;;;;;4.00;2.67;;;;;23.89;49.22;98446.75;4941688;28;102352;-57
2022/06/26 07:48:56;;;;;;;;;3.00;3.00;;;;;23.89;49.18;98455.03;4941983;28;103952;-57
2022/06/26 07:51:23;;;;;;;;;3.00;3.00;;;;;23.88;49.20;98445.91;4935968;28;102554;-57
2022/06/26 07:53:50;;;;;;;;;2.33;2.33;;;;;23.91;49.02;98455.56;4938826;28;103968;-57
2022/06/26 07:56:17;;;;;;;;;4.00;3.33;;;;;23.90;49.19;98443.69;4935572;28;102157;-57
2022/06/26 07:58:44;;;;;;;;;4.00;3.00;;;;;23.90;48.99;98454.75;4934517;28;104229;-57
2022/06/26 08:01:12;;;;;;;;;5.00;4.00;;;;;23.91;48.88;98453.59;4926421;28;102532;-58
2022/06/26 08:03:43;;;;;;;;;3.00;3.00;;;;;23.93;49.17;98453.31;4926319;28;102567;-57
2022/06/26 08:06:11;;;;;;;;;2.00;2.00;;;;;23.93;49.14;98454.16;4932283;28;102341;-57
2022/06/26 08:08:38;;;;;;;;;3.00;3.00;;;;;23.93;49.20;98454.16;4930008;28;104020;-57
2022/06/26 08:11:05;;;;;;;;;4.00;3.67;;;;;23.95;49.23;98459.41;4939751;28;102123;-57
2022/06/26 08:13:32;;;;;;;;;3.00;3.00;;;;;23.95;49.10;98451.94;4936622;28;102792;-57
2022/06/26 08:15:59;;;;;;;;;3.67;3.67;;;;;23.94;48.86;98443.94;4932081;28;102311;-57
2022/06/26 08:18:26;;;;;;;;;3.00;3.00;;;;;23.95;49.03;98451.94;4933240;28;104054;-59
2022/06/26 08:20:53;;;;;;;;;3.00;3.00;;;;;23.96;49.04;98455.50;4938533;28;102354;-57
2022/06/26 08:23:21;;;;;;;;;3.00;3.00;;;;;23.96;48.72;98455.50;4944139;28;102268;-57
2022/06/26 08:25:48;;;;;;;;;3.00;3.00;;;;;23.96;48.84;98459.09;4949595;28;102521;-57
2022/06/26 08:28:15;;;;;;;;;2.67;2.67;;;;;23.97;48.65;98460.75;4925848;28;104050;-57
2022/06/26 08:30:42;;;;;;;;;2.33;2.33;;;;;23.99;48.69;98453.00;4938190;28;101982;-57
2022/06/26 08:33:09;;;;;;;;;2.00;2.00;;;;;23.99;48.95;98457.69;4928998;28;102817;-57
2022/06/26 08:35:36;;;;;;;;;2.00;2.00;;;;;24.00;48.70;98460.16;4941539;28;102085;-57
2022/06/26 08:38:03;;;;;;;;;4.00;3.00;;;;;24.01;48.57;98461.81;4931521;28;104402;-57
2022/06/26 08:40:30;;;;;;;;;2.00;2.00;;;;;24.01;48.82;98461.81;4940935;28;102639;-57
2022/06/26 08:42:57;;;;;;;;;2.33;2.33;;;;;24.02;48.61;98462.63;4944178;28;102133;-57
2022/06/26 08:45:24;;;;;;;;;3.00;3.00;;;;;24.03;48.57;98453.22;4943822;28;102253;-57
2022/06/26 08:47:52;;;;;;;;;2.00;2.00;;;;;24.03;48.53;98456.00;4935162;28;108879;-57
2022/06/26 08:50:21;;;;;;;;;3.00;3.00;;;;;24.02;48.80;98459.88;4941297;28;102137;-57
2022/06/26 08:52:50;;;;;;;;;2.00;2.00;;;;;24.02;48.85;98463.47;4935237;28;102031;-57
2022/06/26 08:55:18;;;;;;;;;2.00;2.00;;;;;24.04;48.64;98459.59;4948031;28;102275;-57
2022/06/26 08:57:48;;;;;;;;;2.67;2.67;;;;;24.05;48.56;98461.22;4934596;28;104160;-57
2022/06/26 09:00:16;;;;;;;;;4.00;2.00;;;;;24.05;48.74;98458.44;4939906;28;101973;-57
2022/06/26 09:02:43;;;;;;;;;3.00;3.00;;;;;24.06;48.57;98465.63;4937918;28;102162;-57
2022/06/26 09:05:10;;;;;;;;;4.00;4.00;;;;;24.07;48.62;98459.81;4936642;28;102136;-57
2022/06/26 09:07:48;;;;;;;;;2.67;2.67;;;;;24.08;48.81;98467.00;4931139;28;104049;-57
2022/06/26 09:10:18;;;;;;;;;2.00;2.00;;;;;24.09;48.53;98462.31;4942097;28;102010;-58
2022/06/26 09:12:51;;;;;;;;;2.67;2.33;;;;;24.09;48.67;98463.09;4930064;28;102393;-57
2022/06/26 09:15:19;;;;;;;;;3.67;3.00;;;;;24.09;48.44;98460.34;4935885;28;102458;-57
2022/06/26 09:18:04;;;;;;;;;3.00;3.00;;;;;24.09;48.57;98463.09;4939577;28;104048;-57
2022/06/26 09:20:32;;;;;;;;;3.67;3.00;;;;;24.10;48.78;98459.22;4933933;28;102629;-57
2022/06/26 09:23:00;;;;;;;;;3.00;3.00;;;;;24.11;48.47;98457.28;4938432;28;102101;-57
2022/06/26 09:25:37;;;;;;;;;2.67;2.67;;;;;24.11;48.73;98463.63;4948000;28;110720;-57
2022/06/26 09:28:11;;;;;;;;;4.00;3.00;;;;;24.11;48.79;98463.63;4939252;28;108976;-57
2022/06/26 09:30:56;;;;;;;;;3.00;3.00;;;;;24.12;48.47;98456.19;4925209;28;104764;-57
2022/06/26 09:33:24;;;;;;;;;2.67;2.33;;;;;24.12;48.61;98459.75;4946970;28;104880;-57
2022/06/26 09:35:51;;;;;;;;;2.00;2.00;;;;;24.13;48.63;98461.44;4943344;28;102249;-57
2022/06/26 09:38:26;;;;;;;;;3.00;3.00;;;;;24.14;48.47;98470.50;4943842;28;104182;-57
2022/06/26 09:41:03;;;;;;;;;3.00;3.00;;;;;24.15;48.41;98455.59;4936588;28;102341;-57
2022/06/26 09:43:35;;;;;;;;;3.00;3.00;;;;;24.15;48.51;98459.19;4926687;28;102359;-57
2022/06/26 09:46:04;;;;;;;;;4.00;2.67;;;;;24.16;48.46;98457.28;4931347;28;102521;-57
2022/06/26 09:48:32;;;;;;;;;3.00;2.00;;;;;24.17;48.60;98467.22;4928137;28;104062;-57
2022/06/26 09:50:59;;;;;;;;;2.00;2.00;;;;;24.17;48.67;98464.44;4935671;28;102577;-57
2022/06/26 09:53:27;;;;;;;;;3.00;2.67;;;;;24.17;48.49;98461.69;4947250;28;102553;-57
2022/06/26 09:55:55;;;;;;;;;2.33;2.33;;;;;24.18;48.37;98455.06;4936173;28;102258;-57
2022/06/26 09:58:24;;;;;;;;;2.00;2.00;;;;;24.19;48.58;98456.69;4940616;28;104040;-57
2022/06/26 10:06:25;;;;;;;;;2.00;2.00;;;;;24.20;48.44;98463.84;4943929;28;102321;-57
2022/06/26 10:09:00;;;;;;;;;3.00;3.00;;;;;24.21;48.38;98460.81;4944395;28;104085;-57
2022/06/26 10:11:28;;;;;;;;;3.00;3.00;;;;;24.22;48.51;98458.88;4946187;28;102180;-57
2022/06/26 10:14:08;;;;;;;;;2.00;2.00;;;;;24.22;48.48;98461.63;4947083;28;102440;-57
2022/06/26 10:16:58;;;;;;;;;2.00;2.00;;;;;24.24;48.31;98459.38;4940577;28;102092;-57
2022/06/26 10:19:42;;;;;;;;;3.00;3.00;;;;;24.24;48.12;98459.38;4956848;28;109183;-57
2022/06/26 10:22:10;;;;;;;;;2.67;2.67;;;;;24.25;48.40;98461.03;4909751;28;104673;-57
2022/06/26 10:24:49;;;;;;;;;3.00;3.00;;;;;24.25;48.22;98456.34;4975405;28;102307;-57
2022/06/26 10:27:16;;;;;;;;;3.00;2.67;;;;;24.26;48.56;98460.75;4937914;28;102516;-58
2022/06/26 10:29:43;;;;;;;;;3.00;3.00;;;;;24.27;48.13;98454.09;4942523;28;104297;-57
2022/06/26 10:32:10;;;;;;;;;2.00;2.00;;;;;24.25;48.53;98450.81;4942410;28;102548;-57
2022/06/26 10:34:37;;;;;;;;;2.50;2.50;;;;;24.26;48.45;98446.94;4937167;28;102658;-58
2022/06/26 10:37:14;;;;;;;;;2.00;2.00;;;;;24.27;48.51;98445.00;4916074;28;102650;-57
2022/06/26 10:39:42;;;;;;;;;2.00;2.00;;;;;24.27;48.51;98448.56;4929446;28;104042;-57
2022/06/26 10:45:23;;;;;;;;;2.67;2.67;;;;;24.30;48.27;98448.00;4939100;28;102162;-57
2022/06/26 10:47:55;;;;;;;;;1.00;1.00;;;;;24.31;48.29;98446.88;4974665;28;102713;-57
2022/06/26 10:50:29;;;;;;;;;3.00;3.00;;;;;24.31;48.21;98449.66;4940209;28;104067;-57
2022/06/26 10:53:16;;;;;;;;;2.67;2.67;;;;;24.33;48.44;98444.63;4946590;28;101975;-57
2022/06/26 10:55:56;;;;;;;;;5.33;4.00;;;;;24.33;48.23;98436.34;4941386;28;102852;-57
2022/06/26 10:58:41;;;;;;;;;3.00;3.00;;;;;24.34;48.55;98442.69;4960189;28;102507;-57
2022/06/26 11:01:10;;;;;;;;;3.00;3.00;;;;;24.33;48.36;98439.09;4938135;28;108880;-57
2022/06/26 11:03:38;;;;;;;;;2.00;2.00;;;;;24.34;48.25;98439.94;4942698;28;102378;-57
2022/06/26 11:06:09;;;;;;;;;3.00;3.00;;;;;24.35;48.55;98436.06;4940386;28;104822;-57
2022/06/26 11:08:43;;;;;;;;;2.33;2.33;;;;;24.34;48.29;98438.00;4934249;28;103202;-57
2022/06/26 11:11:17;;;;;;;;;3.00;3.00;;;;;24.35;48.47;98438.81;4943176;28;105068;-57
2022/06/26 11:13:59;;;;;;;;;2.67;2.67;;;;;24.36;48.42;98443.25;4941293;28;102152;-57
2022/06/26 11:16:41;;;;;;;;;2.33;2.33;;;;;24.37;48.06;98437.41;4940990;28;102359;-57
2022/06/26 11:19:21;;;;;;;;;2.00;2.00;;;;;24.37;48.43;98437.41;4928751;28;102354;-57
2022/06/26 11:21:48;;;;;;;;;1.00;1.00;;;;;24.38;48.16;98433.53;4945101;28;104140;-57
2022/06/26 11:24:15;;;;;;;;;2.33;2.33;;;;;24.38;48.19;98435.47;4946168;28;101965;-57
2022/06/26 11:26:49;;;;;;;;;3.00;2.33;;;;;24.39;48.32;98434.34;4937537;28;102176;-57
2022/06/26 11:29:16;;;;;;;;;3.67;3.67;;;;;24.40;48.18;98430.47;4937341;28;103077;-57
2022/06/26 11:31:48;;;;;;;;;3.67;3.00;;;;;24.40;48.43;98427.72;4939596;28;104220;-57
2022/06/26 11:34:15;;;;;;;;;2.33;2.33;;;;;24.41;48.28;98437.63;4934371;28;102131;-57
2022/06/26 11:36:50;;;;;;;;;4.67;4.67;;;;;24.41;48.29;98432.09;4945954;28;102250;-57
2022/06/26 11:39:25;;;;;;;;;3.00;2.00;;;;;24.42;48.15;98431.81;4942807;28;102189;-57
2022/06/26 11:41:52;;;;;;;;;2.67;2.67;;;;;24.42;47.99;98433.75;4935057;28;104087;-57